sensor_id;sensor_type;location;lat;lon;timestamp;P1;durP1;ratioP1;P2;durP2;ratioP2
50851;SDS011;43953;45.508;-122.806;2022-10-31T00:00:11;7.75;;;4.28;;
50851;SDS011;43953;45.508;-122.806;2022-10-31T00:00:44;7.90;;;4.30;;
50851;SDS011;43953;45.508;-122.806;2022-10-31T00:01:17;7.88;;;4.55;;
50851;SDS011;43953;45.508;-122.806;2022-10-31T00:01:54;6.63;;;4.13;;
50851;SDS011;43953;45.508;-122.806;2022-10-31T00:02:26;6.90;;;4.03;;
50851;SDS011;43953;45.508;-122.806;2022-10-31T00:02:57;7.38;;;4.28;;
50851;SDS011;43953;45.508;-122.806;2022-10-31T00:03:29;8.50;;;4.20;;
50851;SDS011;43953;45.508;-122.806;2022-10-31T00:04:01;6.18;;;3.95;;
50851;SDS011;43953;45.508;-122.806;2022-10-31T00:04:33;5.15;;;3.65;;
50851;SDS011;43953;45.508;-122.806;2022-10-31T00:05:05;6.72;;;4.18;;
50851;SDS011;43953;45.508;-122.806;2022-10-31T00:05:47;6.35;;;3.67;;
50851;SDS011;43953;45.508;-122.806;2022-10-31T00:06:19;8.60;;;4.20;;
50851;SDS011;43953;45.508;-122.806;2022-10-31T00:06:52;5.85;;;4.13;;
50851;SDS011;43953;45.508;-122.806;2022-10-31T00:07:23;5.47;;;4.40;;
50851;SDS011;43953;45.508;-122.806;2022-10-31T00:07:55;6.40;;;4.18;;
50851;SDS011;43953;45.508;-122.806;2022-10-31T00:08:27;10.85;;;4.35;;
50851;SDS011;43953;45.508;-122.806;2022-10-31T00:09:01;5.65;;;3.65;;
50851;SDS011;43953;45.508;-122.806;2022-10-31T00:09:34;7.28;;;4.03;;
50851;SDS011;43953;45.508;-122.806;2022-10-31T00:10:06;6.40;;;4.07;;
50851;SDS011;43953;45.508;-122.806;2022-10-31T00:10:39;6.20;;;4.20;;
50851;SDS011;43953;45.508;-122.806;2022-10-31T00:11:11;5.93;;;3.90;;
50851;SDS011;43953;45.508;-122.806;2022-10-31T00:11:43;6.00;;;3.67;;
50851;SDS011;43953;45.508;-122.806;2022-10-31T00:12:15;6.03;;;3.92;;
50851;SDS011;43953;45.508;-122.806;2022-10-31T00:12:46;7.95;;;4.00;;
50851;SDS011;43953;45.508;-122.806;2022-10-31T00:13:18;6.30;;;3.85;;
50851;SDS011;43953;45.508;-122.806;2022-10-31T00:13:50;5.95;;;3.95;;
50851;SDS011;43953;45.508;-122.806;2022-10-31T00:14:22;5.40;;;3.50;;
50851;SDS011;43953;45.508;-122.806;2022-10-31T00:14:53;6.05;;;4.05;;
50851;SDS011;43953;45.508;-122.806;2022-10-31T00:15:25;4.55;;;3.50;;
50851;SDS011;43953;45.508;-122.806;2022-10-31T00:15:57;7.22;;;3.90;;
50851;SDS011;43953;45.508;-122.806;2022-10-31T00:16:29;5.55;;;3.80;;
50851;SDS011;43953;45.508;-122.806;2022-10-31T00:17:01;7.28;;;3.80;;
50851;SDS011;43953;45.508;-122.806;2022-10-31T00:17:34;6.15;;;3.85;;
50851;SDS011;43953;45.508;-122.806;2022-10-31T00:18:07;5.88;;;3.45;;
50851;SDS011;43953;45.508;-122.806;2022-10-31T00:18:40;8.13;;;3.40;;
50851;SDS011;43953;45.508;-122.806;2022-10-31T00:19:12;5.82;;;3.97;;
50851;SDS011;43953;45.508;-122.806;2022-10-31T00:19:44;4.72;;;3.67;;
50851;SDS011;43953;45.508;-122.806;2022-10-31T00:20:16;5.55;;;3.50;;
50851;SDS011;43953;45.508;-122.806;2022-10-31T00:20:47;6.05;;;3.60;;
50851;SDS011;43953;45.508;-122.806;2022-10-31T00:21:19;4.57;;;3.45;;
50851;SDS011;43953;45.508;-122.806;2022-10-31T00:21:51;6.07;;;3.72;;
50851;SDS011;43953;45.508;-122.806;2022-10-31T00:22:23;3.95;;;3.58;;
50851;SDS011;43953;45.508;-122.806;2022-10-31T00:23:00;8.40;;;3.70;;
50851;SDS011;43953;45.508;-122.806;2022-10-31T00:23:32;6.93;;;4.07;;
50851;SDS011;43953;45.508;-122.806;2022-10-31T00:24:04;5.28;;;3.63;;
50851;SDS011;43953;45.508;-122.806;2022-10-31T00:24:36;4.82;;;3.78;;
50851;SDS011;43953;45.508;-122.806;2022-10-31T00:25:08;5.05;;;3.47;;
50851;SDS011;43953;45.508;-122.806;2022-10-31T00:25:40;9.43;;;3.92;;
50851;SDS011;43953;45.508;-122.806;2022-10-31T00:26:11;6.63;;;3.53;;
50851;SDS011;43953;45.508;-122.806;2022-10-31T00:26:43;6.97;;;3.65;;
50851;SDS011;43953;45.508;-122.806;2022-10-31T00:27:15;6.28;;;3.90;;
50851;SDS011;43953;45.508;-122.806;2022-10-31T00:27:46;5.93;;;3.88;;
50851;SDS011;43953;45.508;-122.806;2022-10-31T00:28:18;7.40;;;3.70;;
50851;SDS011;43953;45.508;-122.806;2022-10-31T00:28:50;6.43;;;3.75;;
50851;SDS011;43953;45.508;-122.806;2022-10-31T00:29:22;7.57;;;4.32;;
50851;SDS011;43953;45.508;-122.806;2022-10-31T00:29:53;7.57;;;4.25;;
50851;SDS011;43953;45.508;-122.806;2022-10-31T00:30:25;7.72;;;3.60;;
50851;SDS011;43953;45.508;-122.806;2022-10-31T00:31:00;6.60;;;3.78;;
50851;SDS011;43953;45.508;-122.806;2022-10-31T00:31:33;6.72;;;4.13;;
50851;SDS011;43953;45.508;-122.806;2022-10-31T00:32:04;6.38;;;3.72;;
50851;SDS011;43953;45.508;-122.806;2022-10-31T00:32:36;8.90;;;4.22;;
50851;SDS011;43953;45.508;-122.806;2022-10-31T00:33:08;7.30;;;4.07;;
50851;SDS011;43953;45.508;-122.806;2022-10-31T00:33:40;5.80;;;3.90;;
50851;SDS011;43953;45.508;-122.806;2022-10-31T00:34:12;6.38;;;4.10;;
50851;SDS011;43953;45.508;-122.806;2022-10-31T00:34:44;5.75;;;4.35;;
50851;SDS011;43953;45.508;-122.806;2022-10-31T00:35:15;5.88;;;3.92;;
50851;SDS011;43953;45.508;-122.806;2022-10-31T00:35:50;5.63;;;3.65;;
50851;SDS011;43953;45.508;-122.806;2022-10-31T00:36:22;5.93;;;4.00;;
50851;SDS011;43953;45.508;-122.806;2022-10-31T00:36:54;6.78;;;4.30;;
50851;SDS011;43953;45.508;-122.806;2022-10-31T00:37:26;6.65;;;4.32;;
50851;SDS011;43953;45.508;-122.806;2022-10-31T00:37:58;6.95;;;4.15;;
50851;SDS011;43953;45.508;-122.806;2022-10-31T00:38:29;5.28;;;4.10;;
50851;SDS011;43953;45.508;-122.806;2022-10-31T00:39:01;5.72;;;3.80;;
50851;SDS011;43953;45.508;-122.806;2022-10-31T00:39:33;4.55;;;3.97;;
50851;SDS011;43953;45.508;-122.806;2022-10-31T00:40:05;6.43;;;3.97;;
50851;SDS011;43953;45.508;-122.806;2022-10-31T00:40:37;5.68;;;3.92;;
50851;SDS011;43953;45.508;-122.806;2022-10-31T00:41:10;7.60;;;4.32;;
50851;SDS011;43953;45.508;-122.806;2022-10-31T00:41:43;6.43;;;4.00;;
50851;SDS011;43953;45.508;-122.806;2022-10-31T00:42:14;4.10;;;3.67;;
50851;SDS011;43953;45.508;-122.806;2022-10-31T00:42:46;5.32;;;4.00;;
50851;SDS011;43953;45.508;-122.806;2022-10-31T00:43:18;6.32;;;4.30;;
50851;SDS011;43953;45.508;-122.806;2022-10-31T00:43:50;5.38;;;4.10;;
50851;SDS011;43953;45.508;-122.806;2022-10-31T00:44:22;5.97;;;3.80;;
50851;SDS011;43953;45.508;-122.806;2022-10-31T00:44:53;6.50;;;4.30;;
50851;SDS011;43953;45.508;-122.806;2022-10-31T00:45:25;5.32;;;4.20;;
50851;SDS011;43953;45.508;-122.806;2022-10-31T00:45:57;5.35;;;4.15;;
50851;SDS011;43953;45.508;-122.806;2022-10-31T00:46:28;8.13;;;4.22;;
50851;SDS011;43953;45.508;-122.806;2022-10-31T00:47:00;5.68;;;4.20;;
50851;SDS011;43953;45.508;-122.806;2022-10-31T00:47:32;6.68;;;3.80;;
50851;SDS011;43953;45.508;-122.806;2022-10-31T00:48:03;10.35;;;4.93;;
50851;SDS011;43953;45.508;-122.806;2022-10-31T00:48:35;7.15;;;4.25;;
50851;SDS011;43953;45.508;-122.806;2022-10-31T00:49:07;5.63;;;4.30;;
50851;SDS011;43953;45.508;-122.806;2022-10-31T00:49:39;7.28;;;4.22;;
50851;SDS011;43953;45.508;-122.806;2022-10-31T00:50:11;9.60;;;4.10;;
50851;SDS011;43953;45.508;-122.806;2022-10-31T00:50:42;8.02;;;4.25;;
50851;SDS011;43953;45.508;-122.806;2022-10-31T00:51:14;7.18;;;4.68;;
50851;SDS011;43953;45.508;-122.806;2022-10-31T00:51:46;5.20;;;4.03;;
50851;SDS011;43953;45.508;-122.806;2022-10-31T00:52:17;7.88;;;4.80;;
50851;SDS011;43953;45.508;-122.806;2022-10-31T00:52:49;5.65;;;4.35;;
50851;SDS011;43953;45.508;-122.806;2022-10-31T00:53:21;7.72;;;4.60;;
50851;SDS011;43953;45.508;-122.806;2022-10-31T00:53:53;7.65;;;4.57;;
50851;SDS011;43953;45.508;-122.806;2022-10-31T00:54:24;6.75;;;4.45;;
50851;SDS011;43953;45.508;-122.806;2022-10-31T00:54:56;7.93;;;4.47;;
50851;SDS011;43953;45.508;-122.806;2022-10-31T00:55:28;6.63;;;4.50;;
50851;SDS011;43953;45.508;-122.806;2022-10-31T00:55:59;6.55;;;4.47;;
50851;SDS011;43953;45.508;-122.806;2022-10-31T00:56:34;7.32;;;4.70;;
50851;SDS011;43953;45.508;-122.806;2022-10-31T00:57:06;6.47;;;4.38;;
50851;SDS011;43953;45.508;-122.806;2022-10-31T00:57:40;5.82;;;4.40;;
50851;SDS011;43953;45.508;-122.806;2022-10-31T00:58:12;5.93;;;4.40;;
50851;SDS011;43953;45.508;-122.806;2022-10-31T00:58:44;7.00;;;4.43;;
50851;SDS011;43953;45.508;-122.806;2022-10-31T00:59:15;8.75;;;4.53;;
50851;SDS011;43953;45.508;-122.806;2022-10-31T00:59:47;7.85;;;4.40;;
50851;SDS011;43953;45.508;-122.806;2022-10-31T01:00:19;5.18;;;4.20;;
50851;SDS011;43953;45.508;-122.806;2022-10-31T01:00:50;8.00;;;4.75;;
50851;SDS011;43953;45.508;-122.806;2022-10-31T01:01:25;7.43;;;4.60;;
50851;SDS011;43953;45.508;-122.806;2022-10-31T01:01:57;8.23;;;4.43;;
50851;SDS011;43953;45.508;-122.806;2022-10-31T01:02:29;9.00;;;4.82;;
50851;SDS011;43953;45.508;-122.806;2022-10-31T01:03:00;5.55;;;4.68;;
50851;SDS011;43953;45.508;-122.806;2022-10-31T01:03:32;7.65;;;4.80;;
50851;SDS011;43953;45.508;-122.806;2022-10-31T01:04:04;7.82;;;4.85;;
50851;SDS011;43953;45.508;-122.806;2022-10-31T01:04:36;6.35;;;4.43;;
50851;SDS011;43953;45.508;-122.806;2022-10-31T01:05:07;7.20;;;4.63;;
50851;SDS011;43953;45.508;-122.806;2022-10-31T01:05:39;8.82;;;5.07;;
50851;SDS011;43953;45.508;-122.806;2022-10-31T01:06:12;9.70;;;5.15;;
50851;SDS011;43953;45.508;-122.806;2022-10-31T01:06:44;8.77;;;5.13;;
50851;SDS011;43953;45.508;-122.806;2022-10-31T01:07:15;6.85;;;4.53;;
50851;SDS011;43953;45.508;-122.806;2022-10-31T01:07:47;7.18;;;4.65;;
50851;SDS011;43953;45.508;-122.806;2022-10-31T01:08:19;7.40;;;4.25;;
50851;SDS011;43953;45.508;-122.806;2022-10-31T01:08:50;6.40;;;4.45;;
50851;SDS011;43953;45.508;-122.806;2022-10-31T01:09:22;9.85;;;4.72;;
50851;SDS011;43953;45.508;-122.806;2022-10-31T01:09:54;8.48;;;4.90;;
50851;SDS011;43953;45.508;-122.806;2022-10-31T01:10:25;6.22;;;4.47;;
50851;SDS011;43953;45.508;-122.806;2022-10-31T01:11:01;7.75;;;4.80;;
50851;SDS011;43953;45.508;-122.806;2022-10-31T01:11:41;7.95;;;5.00;;
50851;SDS011;43953;45.508;-122.806;2022-10-31T01:12:13;7.30;;;4.53;;
50851;SDS011;43953;45.508;-122.806;2022-10-31T01:12:46;7.68;;;4.78;;
50851;SDS011;43953;45.508;-122.806;2022-10-31T01:13:19;6.95;;;4.97;;
50851;SDS011;43953;45.508;-122.806;2022-10-31T01:13:51;8.55;;;5.00;;
50851;SDS011;43953;45.508;-122.806;2022-10-31T01:14:24;7.90;;;4.68;;
50851;SDS011;43953;45.508;-122.806;2022-10-31T01:14:56;7.88;;;4.95;;
50851;SDS011;43953;45.508;-122.806;2022-10-31T01:15:27;7.35;;;4.80;;
50851;SDS011;43953;45.508;-122.806;2022-10-31T01:15:59;7.32;;;4.18;;
50851;SDS011;43953;45.508;-122.806;2022-10-31T01:16:31;7.35;;;4.85;;
50851;SDS011;43953;45.508;-122.806;2022-10-31T01:17:03;6.82;;;4.50;;
50851;SDS011;43953;45.508;-122.806;2022-10-31T01:17:35;7.07;;;4.70;;
50851;SDS011;43953;45.508;-122.806;2022-10-31T01:18:06;8.65;;;4.47;;
50851;SDS011;43953;45.508;-122.806;2022-10-31T01:18:38;7.40;;;4.90;;
50851;SDS011;43953;45.508;-122.806;2022-10-31T01:19:10;6.88;;;5.07;;
50851;SDS011;43953;45.508;-122.806;2022-10-31T01:19:42;7.15;;;4.95;;
50851;SDS011;43953;45.508;-122.806;2022-10-31T01:20:14;8.25;;;4.75;;
50851;SDS011;43953;45.508;-122.806;2022-10-31T01:20:46;8.65;;;4.55;;
50851;SDS011;43953;45.508;-122.806;2022-10-31T01:21:53;6.78;;;4.75;;
50851;SDS011;43953;45.508;-122.806;2022-10-31T01:22:26;7.93;;;4.85;;
50851;SDS011;43953;45.508;-122.806;2022-10-31T01:22:57;8.68;;;4.60;;
50851;SDS011;43953;45.508;-122.806;2022-10-31T01:23:29;6.80;;;4.47;;
50851;SDS011;43953;45.508;-122.806;2022-10-31T01:24:01;7.47;;;4.97;;
50851;SDS011;43953;45.508;-122.806;2022-10-31T01:24:33;6.82;;;4.65;;
50851;SDS011;43953;45.508;-122.806;2022-10-31T01:25:05;9.25;;;4.68;;
50851;SDS011;43953;45.508;-122.806;2022-10-31T01:25:38;6.30;;;4.60;;
50851;SDS011;43953;45.508;-122.806;2022-10-31T01:26:13;7.75;;;5.03;;
50851;SDS011;43953;45.508;-122.806;2022-10-31T01:26:45;7.22;;;4.57;;
50851;SDS011;43953;45.508;-122.806;2022-10-31T01:27:17;6.30;;;4.60;;
50851;SDS011;43953;45.508;-122.806;2022-10-31T01:27:49;5.85;;;4.47;;
50851;SDS011;43953;45.508;-122.806;2022-10-31T01:28:20;6.60;;;4.50;;
50851;SDS011;43953;45.508;-122.806;2022-10-31T01:28:56;8.43;;;4.90;;
50851;SDS011;43953;45.508;-122.806;2022-10-31T01:29:29;8.90;;;4.68;;
50851;SDS011;43953;45.508;-122.806;2022-10-31T01:30:01;7.47;;;5.10;;
50851;SDS011;43953;45.508;-122.806;2022-10-31T01:30:33;8.43;;;4.85;;
50851;SDS011;43953;45.508;-122.806;2022-10-31T01:31:06;6.10;;;4.35;;
50851;SDS011;43953;45.508;-122.806;2022-10-31T01:31:39;7.20;;;5.10;;
50851;SDS011;43953;45.508;-122.806;2022-10-31T01:32:11;6.78;;;4.80;;
50851;SDS011;43953;45.508;-122.806;2022-10-31T01:32:43;8.45;;;4.57;;
50851;SDS011;43953;45.508;-122.806;2022-10-31T01:33:14;7.65;;;5.03;;
50851;SDS011;43953;45.508;-122.806;2022-10-31T01:33:46;9.13;;;5.18;;
50851;SDS011;43953;45.508;-122.806;2022-10-31T01:34:19;9.70;;;5.05;;
50851;SDS011;43953;45.508;-122.806;2022-10-31T01:34:50;7.82;;;5.13;;
50851;SDS011;43953;45.508;-122.806;2022-10-31T01:35:22;8.77;;;5.28;;
50851;SDS011;43953;45.508;-122.806;2022-10-31T01:35:54;8.25;;;5.20;;
50851;SDS011;43953;45.508;-122.806;2022-10-31T01:36:29;9.00;;;5.10;;
50851;SDS011;43953;45.508;-122.806;2022-10-31T01:37:02;8.25;;;5.15;;
50851;SDS011;43953;45.508;-122.806;2022-10-31T01:37:34;7.60;;;5.32;;
50851;SDS011;43953;45.508;-122.806;2022-10-31T01:38:06;8.27;;;5.00;;
50851;SDS011;43953;45.508;-122.806;2022-10-31T01:38:37;7.38;;;5.20;;
50851;SDS011;43953;45.508;-122.806;2022-10-31T01:39:10;9.00;;;4.93;;
50851;SDS011;43953;45.508;-122.806;2022-10-31T01:39:44;8.02;;;5.10;;
50851;SDS011;43953;45.508;-122.806;2022-10-31T01:40:15;8.65;;;5.00;;
50851;SDS011;43953;45.508;-122.806;2022-10-31T01:40:47;6.78;;;4.97;;
50851;SDS011;43953;45.508;-122.806;2022-10-31T01:41:21;8.68;;;5.57;;
50851;SDS011;43953;45.508;-122.806;2022-10-31T01:41:54;7.93;;;5.22;;
50851;SDS011;43953;45.508;-122.806;2022-10-31T01:42:26;7.82;;;5.40;;
50851;SDS011;43953;45.508;-122.806;2022-10-31T01:42:58;8.10;;;5.03;;
50851;SDS011;43953;45.508;-122.806;2022-10-31T01:44:58;7.63;;;5.05;;
50851;SDS011;43953;45.508;-122.806;2022-10-31T01:45:31;9.00;;;5.22;;
50851;SDS011;43953;45.508;-122.806;2022-10-31T01:46:03;8.05;;;5.00;;
50851;SDS011;43953;45.508;-122.806;2022-10-31T01:46:39;9.15;;;5.03;;
50851;SDS011;43953;45.508;-122.806;2022-10-31T01:47:13;8.60;;;5.32;;
50851;SDS011;43953;45.508;-122.806;2022-10-31T01:47:48;9.65;;;5.25;;
50851;SDS011;43953;45.508;-122.806;2022-10-31T01:48:22;7.75;;;5.47;;
50851;SDS011;43953;45.508;-122.806;2022-10-31T01:48:59;8.00;;;5.43;;
50851;SDS011;43953;45.508;-122.806;2022-10-31T01:50:28;7.28;;;4.88;;
50851;SDS011;43953;45.508;-122.806;2022-10-31T01:51:07;8.63;;;5.55;;
50851;SDS011;43953;45.508;-122.806;2022-10-31T01:51:45;9.80;;;5.55;;
50851;SDS011;43953;45.508;-122.806;2022-10-31T01:52:29;7.97;;;5.25;;
50851;SDS011;43953;45.508;-122.806;2022-10-31T01:53:06;8.23;;;5.70;;
50851;SDS011;43953;45.508;-122.806;2022-10-31T01:53:40;8.32;;;4.88;;
50851;SDS011;43953;45.508;-122.806;2022-10-31T01:54:15;8.88;;;5.00;;
50851;SDS011;43953;45.508;-122.806;2022-10-31T01:54:56;8.38;;;5.03;;
50851;SDS011;43953;45.508;-122.806;2022-10-31T01:55:32;9.95;;;5.50;;
50851;SDS011;43953;45.508;-122.806;2022-10-31T01:56:09;7.47;;;5.05;;
50851;SDS011;43953;45.508;-122.806;2022-10-31T01:56:42;8.48;;;4.70;;
50851;SDS011;43953;45.508;-122.806;2022-10-31T01:57:18;8.43;;;5.00;;
50851;SDS011;43953;45.508;-122.806;2022-10-31T01:57:53;6.70;;;4.75;;
50851;SDS011;43953;45.508;-122.806;2022-10-31T01:58:29;6.43;;;4.72;;
50851;SDS011;43953;45.508;-122.806;2022-10-31T01:59:02;7.32;;;4.90;;
50851;SDS011;43953;45.508;-122.806;2022-10-31T01:59:39;7.22;;;4.90;;
50851;SDS011;43953;45.508;-122.806;2022-10-31T02:00:15;7.45;;;4.80;;
50851;SDS011;43953;45.508;-122.806;2022-10-31T02:00:48;6.40;;;4.43;;
50851;SDS011;43953;45.508;-122.806;2022-10-31T02:01:22;6.35;;;4.15;;
50851;SDS011;43953;45.508;-122.806;2022-10-31T02:01:54;5.95;;;4.60;;
50851;SDS011;43953;45.508;-122.806;2022-10-31T02:02:26;7.03;;;4.20;;
50851;SDS011;43953;45.508;-122.806;2022-10-31T02:03:00;7.55;;;4.95;;
50851;SDS011;43953;45.508;-122.806;2022-10-31T02:03:32;7.32;;;4.88;;
50851;SDS011;43953;45.508;-122.806;2022-10-31T02:04:05;7.00;;;4.60;;
50851;SDS011;43953;45.508;-122.806;2022-10-31T02:04:38;8.25;;;4.00;;
50851;SDS011;43953;45.508;-122.806;2022-10-31T02:05:12;6.93;;;4.10;;
50851;SDS011;43953;45.508;-122.806;2022-10-31T02:05:48;6.05;;;4.20;;
50851;SDS011;43953;45.508;-122.806;2022-10-31T02:06:27;6.68;;;4.80;;
50851;SDS011;43953;45.508;-122.806;2022-10-31T02:07:52;7.15;;;4.20;;
50851;SDS011;43953;45.508;-122.806;2022-10-31T02:08:16;7.72;;;4.70;;
50851;SDS011;43953;45.508;-122.806;2022-10-31T02:08:55;6.65;;;4.18;;
50851;SDS011;43953;45.508;-122.806;2022-10-31T02:09:29;8.20;;;4.80;;
50851;SDS011;43953;45.508;-122.806;2022-10-31T02:10:02;5.63;;;4.20;;
50851;SDS011;43953;45.508;-122.806;2022-10-31T02:10:35;7.32;;;4.68;;
50851;SDS011;43953;45.508;-122.806;2022-10-31T02:11:08;8.77;;;4.30;;
50851;SDS011;43953;45.508;-122.806;2022-10-31T02:11:40;7.47;;;5.00;;
50851;SDS011;43953;45.508;-122.806;2022-10-31T02:12:13;8.73;;;4.97;;
50851;SDS011;43953;45.508;-122.806;2022-10-31T02:12:47;7.15;;;4.55;;
50851;SDS011;43953;45.508;-122.806;2022-10-31T02:13:20;4.32;;;3.78;;
50851;SDS011;43953;45.508;-122.806;2022-10-31T02:13:53;7.55;;;4.50;;
50851;SDS011;43953;45.508;-122.806;2022-10-31T02:14:26;5.35;;;4.07;;
50851;SDS011;43953;45.508;-122.806;2022-10-31T02:15:00;6.40;;;4.25;;
50851;SDS011;43953;45.508;-122.806;2022-10-31T02:15:33;8.43;;;4.72;;
50851;SDS011;43953;45.508;-122.806;2022-10-31T02:16:08;7.82;;;4.40;;
50851;SDS011;43953;45.508;-122.806;2022-10-31T02:16:40;8.18;;;4.70;;
50851;SDS011;43953;45.508;-122.806;2022-10-31T02:17:12;6.07;;;4.32;;
50851;SDS011;43953;45.508;-122.806;2022-10-31T02:17:45;9.77;;;4.53;;
50851;SDS011;43953;45.508;-122.806;2022-10-31T02:18:17;8.32;;;4.40;;
50851;SDS011;43953;45.508;-122.806;2022-10-31T02:18:50;8.32;;;4.60;;
50851;SDS011;43953;45.508;-122.806;2022-10-31T02:20:21;6.25;;;4.35;;
50851;SDS011;43953;45.508;-122.806;2022-10-31T02:22:27;7.32;;;4.30;;
50851;SDS011;43953;45.508;-122.806;2022-10-31T02:24:07;7.30;;;4.32;;
50851;SDS011;43953;45.508;-122.806;2022-10-31T02:25:08;6.45;;;4.50;;
50851;SDS011;43953;45.508;-122.806;2022-10-31T02:28:53;7.38;;;4.10;;
50851;SDS011;43953;45.508;-122.806;2022-10-31T02:30:24;6.28;;;4.38;;
50851;SDS011;43953;45.508;-122.806;2022-10-31T02:33:59;5.80;;;4.10;;
50851;SDS011;43953;45.508;-122.806;2022-10-31T02:35:33;5.38;;;3.88;;
50851;SDS011;43953;45.508;-122.806;2022-10-31T02:37:02;6.80;;;3.95;;
50851;SDS011;43953;45.508;-122.806;2022-10-31T02:37:23;9.38;;;4.28;;
50851;SDS011;43953;45.508;-122.806;2022-10-31T02:38:47;8.60;;;4.47;;
50851;SDS011;43953;45.508;-122.806;2022-10-31T02:40:14;6.15;;;4.07;;
50851;SDS011;43953;45.508;-122.806;2022-10-31T02:41:00;6.78;;;4.50;;
50851;SDS011;43953;45.508;-122.806;2022-10-31T02:42:34;8.00;;;4.88;;
50851;SDS011;43953;45.508;-122.806;2022-10-31T02:45:06;6.70;;;4.40;;
50851;SDS011;43953;45.508;-122.806;2022-10-31T02:47:11;8.40;;;4.43;;
50851;SDS011;43953;45.508;-122.806;2022-10-31T02:47:47;5.28;;;3.97;;
50851;SDS011;43953;45.508;-122.806;2022-10-31T02:48:23;5.95;;;3.97;;
50851;SDS011;43953;45.508;-122.806;2022-10-31T02:49:00;7.60;;;4.80;;
50851;SDS011;43953;45.508;-122.806;2022-10-31T02:49:40;5.78;;;4.25;;
50851;SDS011;43953;45.508;-122.806;2022-10-31T02:50:34;7.70;;;4.72;;
50851;SDS011;43953;45.508;-122.806;2022-10-31T02:51:09;6.05;;;4.43;;
50851;SDS011;43953;45.508;-122.806;2022-10-31T02:51:42;8.20;;;4.18;;
50851;SDS011;43953;45.508;-122.806;2022-10-31T02:52:18;7.18;;;4.75;;
50851;SDS011;43953;45.508;-122.806;2022-10-31T02:52:58;7.13;;;4.45;;
50851;SDS011;43953;45.508;-122.806;2022-10-31T02:53:31;6.43;;;4.68;;
50851;SDS011;43953;45.508;-122.806;2022-10-31T02:54:05;6.30;;;4.40;;
50851;SDS011;43953;45.508;-122.806;2022-10-31T02:54:47;7.80;;;4.78;;
50851;SDS011;43953;45.508;-122.806;2022-10-31T02:55:58;5.90;;;4.38;;
50851;SDS011;43953;45.508;-122.806;2022-10-31T02:56:36;6.60;;;4.57;;
50851;SDS011;43953;45.508;-122.806;2022-10-31T02:57:08;8.85;;;4.70;;
50851;SDS011;43953;45.508;-122.806;2022-10-31T02:57:40;7.45;;;4.55;;
50851;SDS011;43953;45.508;-122.806;2022-10-31T02:58:17;6.93;;;4.63;;
50851;SDS011;43953;45.508;-122.806;2022-10-31T02:58:57;6.18;;;4.55;;
50851;SDS011;43953;45.508;-122.806;2022-10-31T02:59:35;6.20;;;4.68;;
50851;SDS011;43953;45.508;-122.806;2022-10-31T03:00:11;6.55;;;5.00;;
50851;SDS011;43953;45.508;-122.806;2022-10-31T03:03:06;6.07;;;4.57;;
50851;SDS011;43953;45.508;-122.806;2022-10-31T03:06:00;7.47;;;4.50;;
50851;SDS011;43953;45.508;-122.806;2022-10-31T03:08:34;5.97;;;4.90;;
50851;SDS011;43953;45.508;-122.806;2022-10-31T03:10:27;10.20;;;4.90;;
50851;SDS011;43953;45.508;-122.806;2022-10-31T03:11:15;6.53;;;4.95;;
50851;SDS011;43953;45.508;-122.806;2022-10-31T03:14:41;8.45;;;4.80;;
50851;SDS011;43953;45.508;-122.806;2022-10-31T03:15:31;7.85;;;4.80;;
50851;SDS011;43953;45.508;-122.806;2022-10-31T03:17:25;7.55;;;5.30;;
50851;SDS011;43953;45.508;-122.806;2022-10-31T03:18:26;10.10;;;5.50;;
50851;SDS011;43953;45.508;-122.806;2022-10-31T03:19:09;8.25;;;5.03;;
50851;SDS011;43953;45.508;-122.806;2022-10-31T03:19:54;9.70;;;5.40;;
50851;SDS011;43953;45.508;-122.806;2022-10-31T03:20:38;8.43;;;4.75;;
50851;SDS011;43953;45.508;-122.806;2022-10-31T03:21:13;7.28;;;5.07;;
50851;SDS011;43953;45.508;-122.806;2022-10-31T03:21:57;8.38;;;6.22;;
50851;SDS011;43953;45.508;-122.806;2022-10-31T03:22:37;8.07;;;5.80;;
50851;SDS011;43953;45.508;-122.806;2022-10-31T03:23:17;8.30;;;5.43;;
50851;SDS011;43953;45.508;-122.806;2022-10-31T03:23:50;7.72;;;5.55;;
50851;SDS011;43953;45.508;-122.806;2022-10-31T03:24:25;8.25;;;5.53;;
50851;SDS011;43953;45.508;-122.806;2022-10-31T03:25:02;8.38;;;5.97;;
50851;SDS011;43953;45.508;-122.806;2022-10-31T03:25:36;7.10;;;5.85;;
50851;SDS011;43953;45.508;-122.806;2022-10-31T03:26:09;9.40;;;5.60;;
50851;SDS011;43953;45.508;-122.806;2022-10-31T03:26:47;9.25;;;5.32;;
50851;SDS011;43953;45.508;-122.806;2022-10-31T03:27:24;9.15;;;5.72;;
50851;SDS011;43953;45.508;-122.806;2022-10-31T03:27:58;8.43;;;5.78;;
50851;SDS011;43953;45.508;-122.806;2022-10-31T03:28:37;9.32;;;5.57;;
50851;SDS011;43953;45.508;-122.806;2022-10-31T03:29:30;9.50;;;6.28;;
50851;SDS011;43953;45.508;-122.806;2022-10-31T03:30:06;8.73;;;5.90;;
50851;SDS011;43953;45.508;-122.806;2022-10-31T03:30:39;8.18;;;5.80;;
50851;SDS011;43953;45.508;-122.806;2022-10-31T03:31:15;10.05;;;6.47;;
50851;SDS011;43953;45.508;-122.806;2022-10-31T03:31:51;8.77;;;6.07;;
50851;SDS011;43953;45.508;-122.806;2022-10-31T03:32:51;9.77;;;6.22;;
50851;SDS011;43953;45.508;-122.806;2022-10-31T03:33:26;9.18;;;6.22;;
50851;SDS011;43953;45.508;-122.806;2022-10-31T03:34:01;10.32;;;6.22;;
50851;SDS011;43953;45.508;-122.806;2022-10-31T03:34:36;8.25;;;5.93;;
50851;SDS011;43953;45.508;-122.806;2022-10-31T03:35:10;9.98;;;6.18;;
50851;SDS011;43953;45.508;-122.806;2022-10-31T03:35:47;11.80;;;6.50;;
50851;SDS011;43953;45.508;-122.806;2022-10-31T03:36:22;8.35;;;6.05;;
50851;SDS011;43953;45.508;-122.806;2022-10-31T03:36:55;11.73;;;6.28;;
50851;SDS011;43953;45.508;-122.806;2022-10-31T03:37:29;8.98;;;6.20;;
50851;SDS011;43953;45.508;-122.806;2022-10-31T03:38:03;9.40;;;6.57;;
50851;SDS011;43953;45.508;-122.806;2022-10-31T03:38:36;10.10;;;6.57;;
50851;SDS011;43953;45.508;-122.806;2022-10-31T03:39:10;12.00;;;6.93;;
50851;SDS011;43953;45.508;-122.806;2022-10-31T03:39:46;12.23;;;7.40;;
50851;SDS011;43953;45.508;-122.806;2022-10-31T03:40:21;13.40;;;7.65;;
50851;SDS011;43953;45.508;-122.806;2022-10-31T03:40:56;8.93;;;6.95;;
50851;SDS011;43953;45.508;-122.806;2022-10-31T03:41:32;10.00;;;7.55;;
50851;SDS011;43953;45.508;-122.806;2022-10-31T03:42:14;10.65;;;7.07;;
50851;SDS011;43953;45.508;-122.806;2022-10-31T03:42:53;9.60;;;7.57;;
50851;SDS011;43953;45.508;-122.806;2022-10-31T03:44:07;13.30;;;7.72;;
50851;SDS011;43953;45.508;-122.806;2022-10-31T03:44:46;10.00;;;7.05;;
50851;SDS011;43953;45.508;-122.806;2022-10-31T03:45:29;10.23;;;7.25;;
50851;SDS011;43953;45.508;-122.806;2022-10-31T03:46:02;9.43;;;6.80;;
50851;SDS011;43953;45.508;-122.806;2022-10-31T03:46:35;9.88;;;7.18;;
50851;SDS011;43953;45.508;-122.806;2022-10-31T03:47:07;8.48;;;6.70;;
50851;SDS011;43953;45.508;-122.806;2022-10-31T03:47:39;9.65;;;7.03;;
50851;SDS011;43953;45.508;-122.806;2022-10-31T03:48:13;9.73;;;6.50;;
50851;SDS011;43953;45.508;-122.806;2022-10-31T03:48:47;10.32;;;7.05;;
50851;SDS011;43953;45.508;-122.806;2022-10-31T03:49:19;9.98;;;7.50;;
50851;SDS011;43953;45.508;-122.806;2022-10-31T03:49:51;10.35;;;7.05;;
50851;SDS011;43953;45.508;-122.806;2022-10-31T03:50:24;8.20;;;6.35;;
50851;SDS011;43953;45.508;-122.806;2022-10-31T03:52:02;9.45;;;6.63;;
50851;SDS011;43953;45.508;-122.806;2022-10-31T03:52:48;12.25;;;7.13;;